Home   Weather   USA   Placerville   Past weeks
Flag for USA

Past Weather in Placerville, California, USA — Yesterday and Last 2 Weeks

Currently: 91 °F. Sunny. (Weather station: Placerville Airport, USA). See more current weather

Past Weather in Placerville — Graph

°F

Placerville Temperature Yesterday

Maximum temperature yesterday: 97 °F (at 3:55 pm)
Minimum temperature yesterday: 75 °F (at 2:55 am)
Average temperature yesterday: 86 °F

High & Low Weather Summary for the Past Weeks

 TemperatureHumidityPressure
High97 °F (Aug 16, 3:55 pm)88% (Aug 5, 9:35 am)30.16 "Hg (Aug 5, 9:35 am)
Low61 °F (Aug 9, 11:55 pm)9% (Aug 14, 4:15 pm)29.91 "Hg (Aug 16, 3:55 pm)
Average78 °F31%30.05 "Hg
* Reported Aug 2 1:15 pm — Aug 17 1:15 pm, Placerville. Weather by CustomWeather, © 2022

Note: Actual official high and low records may vary slightly from our data, if they occured in-between our weather recording intervals... More about our weather records

Placerville Weather History for the Previous 24 Hours

Scroll right to see more
 ConditionsComfort  
Time TempWeatherWind HumidityBarometerVisibility
1:15 pm
Wed, Aug 17
90 °FSunny.3 mph16%30.02 "Hg10 mi
12:55 pm90 °FSunny.No wind16%30.03 "Hg10 mi
12:15 pm90 °FSunny.5 mph17%30.03 "Hg10 mi
11:55 am90 °FSunny.3 mph16%30.04 "Hg10 mi
11:15 am91 °FSunny.6 mph14%30.03 "Hg10 mi
10:55 am91 °FSunny.3 mph12%30.03 "Hg10 mi
10:15 am88 °FSunny.No wind16%30.02 "Hg10 mi
9:55 am86 °FSunny.No wind24%30.02 "Hg10 mi
9:35 am86 °FSunny.No wind20%30.01 "Hg10 mi
9:15 am84 °FSunny.No wind22%30.01 "Hg10 mi
8:55 am82 °FSunny.3 mph26%30.01 "Hg10 mi
8:35 am82 °FSunny.7 mph21%30.00 "Hg10 mi
8:15 am84 °FSunny.9 mph20%30.00 "Hg10 mi
7:35 am81 °FSunny.9 mph23%29.99 "Hg10 mi
7:15 am81 °FSunny.8 mph23%30.00 "Hg10 mi
6:55 am81 °FSunny.7 mph21%30.00 "Hg10 mi
6:35 am81 °FSunny.6 mph21%29.99 "Hg10 mi
5:55 am81 °FClear.5 mph23%29.98 "Hg10 mi
5:15 am81 °FClear.6 mph21%29.96 "Hg10 mi
4:55 am81 °FClear.7 mph23%29.96 "Hg10 mi
4:15 am81 °FClear.10 mph23%29.96 "Hg10 mi
3:55 am82 °FClear.8 mph20%29.95 "Hg10 mi
3:35 am81 °FClear.7 mph21%29.95 "Hg10 mi
3:15 am81 °FClear.9 mph21%29.95 "Hg10 mi
2:55 am81 °FClear.9 mph23%29.95 "Hg10 mi
1:55 am82 °FPleasantly warm.3 mph20%29.94 "Hg10 mi
1:15 am81 °FClear.5 mph18%29.95 "Hg10 mi
12:35 am81 °FClear.8 mph20%29.94 "Hg10 mi
11:15 pm
Tue, Aug 16
84 °FClear.3 mph15%29.94 "Hg10 mi
10:35 pm84 °FClear.5 mph16%29.94 "Hg10 mi
9:55 pm84 °FClear.6 mph18%29.94 "Hg10 mi
9:35 pm88 °FClear.6 mph13%29.94 "Hg10 mi
9:15 pm86 °FClear.3 mph14%29.93 "Hg10 mi
8:55 pm88 °FClear.No wind13%29.93 "Hg10 mi
8:35 pm90 °FClear.No wind13%29.93 "Hg10 mi
8:15 pm90 °FClear.6 mph12%29.92 "Hg10 mi
7:35 pm91 °FSunny.6 mph10%29.92 "Hg10 mi
6:55 pm93 °FSunny.No wind10%29.92 "Hg10 mi
5:55 pm95 °FSunny.8 mph10%29.91 "Hg10 mi
4:15 pm97 °FSunny.8 mph9%29.91 "Hg10 mi
3:55 pm97 °FSunny.3 mph9%29.91 "Hg10 mi
3:35 pm95 °FSunny.5 mph10%29.92 "Hg10 mi
3:15 pm95 °FSunny.6 mph11%29.92 "Hg10 mi
2:55 pm95 °FSunny.7 mph11%29.92 "Hg10 mi
2:35 pm95 °FSunny.6 mph11%29.93 "Hg10 mi
2:15 pm95 °FSunny.3 mph11%29.93 "Hg10 mi
Weather by CustomWeather, © 2022

See weather overview